Terminal Aerodrome Forecast
Issued by NWS Sterling, VA

Home | Current Version | Previous Version | Text Only | Print | Product List | Glossary On
Versions: 1 2 3 4 5 6 7 8 9 10 11 12 13
000
FTUS41 KLWX 221729
TAFMRB
TAF
KMRB 221729Z 2218/2318 17006KT P6SM BKN070
     FM230600 17009KT 5SM -SHRA OVC035
     FM230900 18010G17KT 3SM -SHRA OVC003
     FM231000 19010KT 3SM -SHRA OVC008
     FM231200 22009KT 3SM -SHRA OVC008 WS020/19040KT
     FM231600 25011G18KT P6SM -SHRA BKN035
     FM231700 26012G20KT P6SM -SHRA SCT060=

USA.gov is the U.S. government's official web portal to all federal, state and local government web resources and services.